Time;durP1;ratioP1;P1;durP2;ratioP2;P2;SDS_P1;SDS_P2;PMS_P1;PMS_P2;Temp;Humidity;BMP_temperature;BMP_pressure;BME280_temperature;BME280_humidity;BME280_pressure;Samples;Min_cycle;Max_cycle;Signal;HPM_P1;HPM_P2
2021/04/10 00:01:12;;;;;;;1.60;0.40;;;12.90;86.20;;;;;;5083746;28;20217;-58
2021/04/10 00:03:38;;;;;;;1.50;0.23;;;12.90;86.60;;;;;;5082718;28;20188;-59
2021/04/10 00:06:03;;;;;;;1.47;0.20;;;12.90;86.40;;;;;;5065948;28;20452;-59
2021/04/10 00:08:29;;;;;;;1.50;0.30;;;12.80;86.80;;;;;;5089242;28;20228;-59
2021/04/10 00:10:55;;;;;;;1.50;0.20;;;12.80;86.70;;;;;;5084950;28;20280;-59
2021/04/10 00:13:20;;;;;;;1.50;0.20;;;12.80;86.80;;;;;;5072296;28;20177;-60
2021/04/10 00:15:46;;;;;;;1.50;0.20;;;12.70;87.10;;;;;;5080262;28;20183;-60
2021/04/10 00:18:12;;;;;;;1.50;0.20;;;12.70;87.30;;;;;;5076023;28;20187;-60
2021/04/10 00:20:38;;;;;;;1.47;0.20;;;12.70;87.50;;;;;;5087694;28;20209;-60
2021/04/10 00:23:03;;;;;;;1.50;0.20;;;12.70;87.30;;;;;;5090089;28;20197;-61
2021/04/10 00:25:29;;;;;;;1.40;0.20;;;12.70;87.60;;;;;;5096440;28;20437;-60
2021/04/10 00:27:55;;;;;;;1.50;0.20;;;12.70;87.50;;;;;;5089262;28;20213;-60
2021/04/10 00:30:21;;;;;;;1.50;0.20;;;12.70;87.70;;;;;;5088399;28;20208;-61
2021/04/10 00:32:46;;;;;;;1.70;0.40;;;12.60;87.50;;;;;;5089907;28;20460;-59
2021/04/10 00:35:12;;;;;;;1.60;0.50;;;12.70;88.00;;;;;;5077311;28;20180;-59
2021/04/10 00:37:38;;;;;;;1.50;0.20;;;12.70;88.00;;;;;;5076705;28;20198;-59
2021/04/10 00:40:05;;;;;;;1.50;0.20;;;12.60;88.30;;;;;;5076953;28;20450;-59
2021/04/10 00:42:31;;;;;;;2.77;2.53;;;12.60;88.40;;;;;;5073597;28;20439;-59
2021/04/10 00:44:57;;;;;;;1.47;0.20;;;12.60;88.50;;;;;;5074322;28;20453;-59
2021/04/10 00:47:22;;;;;;;1.97;0.80;;;12.60;88.80;;;;;;5077148;28;20192;-59
2021/04/10 00:49:48;;;;;;;1.50;0.40;;;12.60;89.00;;;;;;5067453;28;20224;-59
2021/04/10 00:52:16;;;;;;;2.03;0.60;;;12.50;89.10;;;;;;5077009;28;20466;-60
2021/04/10 00:54:42;;;;;;;1.80;0.40;;;12.50;89.00;;;;;;5081392;28;20183;-58
2021/04/10 00:57:08;;;;;;;2.17;1.03;;;12.50;89.30;;;;;;5072062;28;20439;-59
2021/04/10 00:59:34;;;;;;;1.60;0.33;;;12.50;89.30;;;;;;5070865;28;20512;-59
2021/04/10 01:02:01;;;;;;;1.43;0.20;;;12.50;89.50;;;;;;5078798;28;20468;-59
2021/04/10 01:04:27;;;;;;;8.10;1.77;;;12.60;89.80;;;;;;5075140;28;20185;-59
2021/04/10 01:06:53;;;;;;;2.67;0.93;;;12.60;89.70;;;;;;5072656;28;20499;-59
2021/04/10 01:09:18;;;;;;;1.50;0.30;;;12.60;89.90;;;;;;5081217;28;20284;-59
2021/04/10 01:12:14;;;;;;;2.67;0.87;;;12.60;89.90;;;;;;5071672;28;20200;-60
2021/04/10 01:14:52;;;;;;;2.00;0.67;;;12.60;90.00;;;;;;5070435;28;20180;-59
2021/04/10 01:17:30;;;;;;;1.50;0.27;;;12.60;90.10;;;;;;5076407;28;20431;-59
2021/04/10 01:20:49;;;;;;;1.50;0.30;;;12.50;91.80;;;;;;5081348;28;20540;-58
2021/04/10 01:23:55;;;;;;;1.80;0.50;;;12.30;94.80;;;;;;5000264;28;20817;-59
2021/04/10 01:26:57;;;;;;;1.50;0.20;;;12.00;96.70;;;;;;5070422;28;20439;-59
2021/04/10 01:29:24;;;;;;;1.50;0.40;;;11.90;98.40;;;;;;5076562;28;20471;-59
2021/04/10 01:31:53;;;;;;;1.50;0.20;;;11.80;98.90;;;;;;5076028;28;20454;-58
2021/04/10 01:34:34;;;;;;;1.50;0.20;;;11.80;98.40;;;;;;5081193;28;20483;-59
2021/04/10 01:37:08;;;;;;;1.50;0.20;;;11.90;98.40;;;;;;5071263;28;21001;-59
2021/04/10 01:39:34;;;;;;;1.70;0.73;;;11.90;98.20;;;;;;5071567;28;20473;-59
2021/04/10 01:42:01;;;;;;;1.50;0.20;;;11.90;98.30;;;;;;5081237;28;20445;-60
2021/04/10 01:44:28;;;;;;;1.50;0.30;;;11.90;97.90;;;;;;5068184;28;20458;-59
2021/04/10 01:46:55;;;;;;;1.50;0.20;;;12.00;97.80;;;;;;5069622;28;20485;-59
2021/04/10 01:49:22;;;;;;;1.50;0.20;;;12.00;97.40;;;;;;5072307;28;20470;-59
2021/04/10 01:51:48;;;;;;;1.60;0.40;;;12.00;97.70;;;;;;5072282;28;20446;-59
2021/04/10 01:54:14;;;;;;;2.50;0.60;;;12.00;97.70;;;;;;5068128;28;20522;-59
2021/04/10 01:56:44;;;;;;;12.30;2.17;;;12.00;97.40;;;;;;5071312;28;20458;-59
2021/04/10 01:59:12;;;;;;;1.50;0.20;;;12.00;97.80;;;;;;5071646;28;20438;-59
2021/04/10 02:01:40;;;;;;;1.50;0.30;;;12.00;97.70;;;;;;5069290;28;20469;-60
2021/04/10 02:04:08;;;;;;;1.50;0.30;;;11.90;97.30;;;;;;5072194;28;20531;-59
2021/04/10 02:06:34;;;;;;;1.50;0.20;;;11.90;97.30;;;;;;5069783;28;20431;-59
2021/04/10 02:08:59;;;;;;;1.50;0.20;;;11.90;97.30;;;;;;5069691;28;21007;-59
2021/04/10 02:11:26;;;;;;;1.50;0.20;;;11.90;97.30;;;;;;5088180;28;20188;-61
2021/04/10 02:13:52;;;;;;;1.50;0.20;;;11.90;97.50;;;;;;5075512;28;20268;-59
2021/04/10 02:16:20;;;;;;;1.80;0.43;;;11.90;97.60;;;;;;5047415;28;20436;-59
2021/04/10 02:18:46;;;;;;;1.40;0.20;;;11.90;97.40;;;;;;5072281;28;20476;-58
2021/04/10 02:21:12;;;;;;;2.80;1.23;;;11.90;97.30;;;;;;5069680;28;20454;-59
2021/04/10 02:23:43;;;;;;;1.50;0.20;;;11.90;97.40;;;;;;5069198;28;20438;-59
2021/04/10 02:26:09;;;;;;;2.90;0.87;;;11.90;97.50;;;;;;5069233;28;21499;-59
2021/04/10 02:28:35;;;;;;;3.20;0.80;;;11.90;97.40;;;;;;5066935;28;20422;-59
2021/04/10 02:31:03;;;;;;;1.80;0.63;;;11.90;97.70;;;;;;5069760;28;20504;-59
2021/04/10 02:33:43;;;;;;;1.50;0.20;;;11.80;97.90;;;;;;5071368;28;20514;-60
2021/04/10 02:36:13;;;;;;;1.50;0.20;;;11.80;98.30;;;;;;5066419;28;20427;-60
2021/04/10 02:38:42;;;;;;;1.90;0.83;;;11.80;98.70;;;;;;5077067;28;20506;-60
2021/04/10 02:41:14;;;;;;;1.50;0.30;;;11.70;99.10;;;;;;5079982;28;20861;-60
2021/04/10 02:43:44;;;;;;;3.83;2.10;;;11.70;99.50;;;;;;5076016;28;20442;-60
2021/04/10 02:46:12;;;;;;;3.10;1.70;;;11.70;99.50;;;;;;5071220;28;20439;-60
2021/04/10 02:48:45;;;;;;;1.87;0.67;;;11.60;99.90;;;;;;5068886;28;20514;-60
2021/04/10 02:51:12;;;;;;;1.50;0.20;;;11.50;99.90;;;;;;5072357;28;20454;-60
2021/04/10 02:53:40;;;;;;;1.50;0.20;;;11.40;99.90;;;;;;5071639;28;20470;-60
2021/04/10 02:56:07;;;;;;;1.50;0.30;;;11.40;99.90;;;;;;5068951;28;20455;-60
2021/04/10 02:58:34;;;;;;;1.50;0.20;;;11.40;99.90;;;;;;5068207;28;20442;-59
2021/04/10 03:00:59;;;;;;;1.50;0.20;;;11.40;99.90;;;;;;5069775;28;20469;-60
2021/04/10 03:03:29;;;;;;;1.53;0.30;;;11.40;99.90;;;;;;5073570;28;20443;-60
2021/04/10 03:05:55;;;;;;;5.40;2.00;;;11.30;99.90;;;;;;5075533;28;20262;-60
2021/04/10 03:08:23;;;;;;;1.50;0.20;;;11.30;99.90;;;;;;5075442;28;20462;-60
2021/04/10 03:10:51;;;;;;;3.63;3.20;;;11.20;99.90;;;;;;5074660;28;20478;-60
2021/04/10 03:13:18;;;;;;;1.50;0.20;;;11.20;99.90;;;;;;5075071;28;20446;-60
2021/04/10 03:15:45;;;;;;;1.60;0.30;;;11.20;99.90;;;;;;5072452;28;20439;-60
2021/04/10 03:18:12;;;;;;;2.27;1.20;;;11.20;99.90;;;;;;5073035;28;20434;-59
2021/04/10 03:20:39;;;;;;;1.57;0.20;;;11.20;99.90;;;;;;5075873;28;20466;-59
2021/04/10 03:23:05;;;;;;;1.57;0.20;;;11.20;99.90;;;;;;5076886;28;20438;-59
2021/04/10 03:25:30;;;;;;;1.50;0.20;;;11.20;99.90;;;;;;5073445;28;20483;-59
2021/04/10 03:27:56;;;;;;;1.90;1.03;;;11.20;99.90;;;;;;5074177;28;20199;-59
2021/04/10 03:30:23;;;;;;;1.57;0.30;;;11.20;99.90;;;;;;5071969;28;20216;-59
2021/04/10 03:32:49;;;;;;;2.17;1.07;;;11.20;99.90;;;;;;5072761;28;20184;-59
2021/04/10 03:35:15;;;;;;;1.50;0.20;;;11.20;99.90;;;;;;5073765;28;20439;-59
2021/04/10 03:37:42;;;;;;;1.50;0.20;;;11.20;99.90;;;;;;5072411;28;20813;-61
2021/04/10 03:40:08;;;;;;;1.50;0.20;;;11.20;99.90;;;;;;5070667;28;20458;-59
2021/04/10 03:42:37;;;;;;;1.70;0.70;;;11.20;99.90;;;;;;5072555;28;20478;-59
2021/04/10 03:45:04;;;;;;;1.60;0.30;;;11.10;99.90;;;;;;5068213;28;20435;-60
2021/04/10 03:47:29;;;;;;;4.23;1.30;;;11.10;99.90;;;;;;5069843;28;20457;-59
2021/04/10 03:49:55;;;;;;;2.10;0.30;;;11.00;99.90;;;;;;5072273;28;21138;-59
2021/04/10 03:52:20;;;;;;;2.70;1.87;;;10.90;99.90;;;;;;5077957;28;20192;-62
2021/04/10 03:54:46;;;;;;;1.60;0.50;;;10.90;99.90;;;;;;5073307;28;20367;-59
2021/04/10 03:57:11;;;;;;;1.57;0.30;;;10.90;99.90;;;;;;5071414;28;20177;-59
2021/04/10 03:59:37;;;;;;;3.23;1.70;;;10.90;99.90;;;;;;5072704;28;20211;-59
2021/04/10 04:02:02;;;;;;;1.50;0.20;;;10.90;99.90;;;;;;5069371;28;20197;-58
2021/04/10 04:04:28;;;;;;;1.57;0.20;;;10.90;99.90;;;;;;5067105;28;20180;-59
2021/04/10 04:06:53;;;;;;;1.50;0.20;;;10.90;99.90;;;;;;5073362;28;20192;-58
2021/04/10 04:09:19;;;;;;;5.37;1.40;;;10.90;99.90;;;;;;5071063;28;20259;-59
2021/04/10 04:11:44;;;;;;;1.53;0.20;;;10.90;99.90;;;;;;5081211;28;20184;-59
2021/04/10 04:14:10;;;;;;;1.50;0.20;;;10.90;99.90;;;;;;5084894;28;20238;-60
2021/04/10 04:16:35;;;;;;;2.23;1.17;;;11.00;99.90;;;;;;5082494;28;20267;-60
2021/04/10 04:19:01;;;;;;;1.50;0.20;;;10.90;99.90;;;;;;5081189;28;20199;-59
2021/04/10 04:21:26;;;;;;;1.50;0.20;;;11.00;99.90;;;;;;5084031;28;20188;-59
2021/04/10 04:23:52;;;;;;;2.40;1.00;;;10.90;99.90;;;;;;5080421;28;20192;-60
2021/04/10 04:26:25;;;;;;;1.60;0.20;;;11.00;99.90;;;;;;5077483;28;20193;-59
2021/04/10 04:28:51;;;;;;;1.50;0.20;;;11.00;99.90;;;;;;5079158;28;20192;-59
2021/04/10 04:31:17;;;;;;;1.70;0.40;;;11.00;99.90;;;;;;5073797;28;20450;-58
2021/04/10 04:33:42;;;;;;;3.60;1.23;;;11.00;99.90;;;;;;5077768;28;20176;-60
2021/04/10 04:36:08;;;;;;;1.60;0.20;;;11.00;99.90;;;;;;5077194;28;20427;-59
2021/04/10 04:38:33;;;;;;;3.27;1.50;;;11.10;99.90;;;;;;5082013;28;20192;-58
2021/04/10 04:40:59;;;;;;;3.37;1.47;;;11.10;99.90;;;;;;5073704;28;20200;-58
2021/04/10 04:43:25;;;;;;;2.00;0.70;;;11.10;99.90;;;;;;5068498;28;20578;-58
2021/04/10 04:45:50;;;;;;;3.13;1.00;;;11.10;99.90;;;;;;5070820;28;20196;-58
2021/04/10 04:48:16;;;;;;;1.90;0.30;;;11.10;99.90;;;;;;5070670;28;20203;-58
2021/04/10 04:50:41;;;;;;;2.83;1.53;;;11.10;99.90;;;;;;5069559;28;20292;-59
2021/04/10 04:53:07;;;;;;;2.03;0.93;;;11.10;99.90;;;;;;5067092;28;20191;-59
2021/04/10 04:55:32;;;;;;;2.53;1.50;;;11.00;99.90;;;;;;5069611;28;20177;-58
2021/04/10 04:57:58;;;;;;;1.60;0.20;;;10.80;99.90;;;;;;5071137;28;20226;-59
2021/04/10 05:00:23;;;;;;;1.97;0.83;;;10.60;99.90;;;;;;5067661;28;20216;-58
2021/04/10 05:02:49;;;;;;;2.57;1.13;;;10.50;99.90;;;;;;5069911;28;20664;-58
2021/04/10 05:05:15;;;;;;;4.93;2.33;;;10.50;99.90;;;;;;5072607;28;20500;-58
2021/04/10 05:07:41;;;;;;;5.90;3.00;;;10.40;99.90;;;;;;5069686;28;20941;-59
2021/04/10 05:10:08;;;;;;;1.83;0.60;;;10.30;99.90;;;;;;5069378;28;20220;-58
2021/04/10 05:12:34;;;;;;;9.27;3.30;;;10.30;99.90;;;;;;5068792;28;20200;-58
2021/04/10 05:14:59;;;;;;;3.40;1.40;;;10.30;99.90;;;;;;5068448;28;20442;-59
2021/04/10 05:17:25;;;;;;;2.90;1.13;;;10.30;99.90;;;;;;5069268;28;20571;-58
2021/04/10 05:19:51;;;;;;;2.93;0.60;;;10.30;99.90;;;;;;5070614;28;20227;-58
2021/04/10 05:22:16;;;;;;;10.90;1.37;;;10.30;99.90;;;;;;5071526;28;20180;-58
2021/04/10 05:24:42;;;;;;;2.13;0.90;;;10.30;99.90;;;;;;5069073;28;20192;-58
2021/04/10 05:27:07;;;;;;;3.20;1.67;;;10.30;99.90;;;;;;5071562;28;20203;-58
2021/04/10 05:29:33;;;;;;;5.27;2.80;;;10.20;99.90;;;;;;5070813;28;20234;-58
2021/04/10 05:32:00;;;;;;;2.67;1.37;;;10.20;99.90;;;;;;5069640;28;20185;-59
2021/04/10 05:34:25;;;;;;;4.03;2.20;;;10.10;99.90;;;;;;5072595;28;20180;-59
2021/04/10 05:36:51;;;;;;;4.07;2.07;;;10.10;99.90;;;;;;5069658;28;20483;-58
2021/04/10 05:39:16;;;;;;;2.93;1.40;;;10.20;99.90;;;;;;5069628;28;20625;-59
2021/04/10 05:41:42;;;;;;;1.87;0.43;;;10.20;99.90;;;;;;5073228;28;20214;-59
2021/04/10 05:44:07;;;;;;;2.53;0.73;;;10.20;99.90;;;;;;5071469;28;20188;-59
2021/04/10 05:46:33;;;;;;;4.17;1.70;;;10.20;99.90;;;;;;5069483;28;20210;-58
2021/04/10 05:48:58;;;;;;;2.87;0.67;;;10.20;99.90;;;;;;5071956;28;20187;-58
2021/04/10 05:51:24;;;;;;;3.03;1.37;;;10.30;99.90;;;;;;5065828;28;20213;-59
2021/04/10 05:53:49;;;;;;;5.97;2.43;;;10.30;99.90;;;;;;5068552;28;20176;-59
2021/04/10 05:56:15;;;;;;;5.40;2.23;;;10.30;99.90;;;;;;5070973;28;20204;-59
2021/04/10 05:58:41;;;;;;;4.37;2.10;;;10.30;99.90;;;;;;5069501;28;20230;-58
2021/04/10 06:01:06;;;;;;;2.43;0.70;;;10.30;99.90;;;;;;5069880;28;20599;-58
2021/04/10 06:03:32;;;;;;;4.57;1.43;;;10.30;99.90;;;;;;5076202;28;20183;-58
2021/04/10 06:05:58;;;;;;;3.73;1.30;;;10.30;99.90;;;;;;5071460;28;20515;-59
2021/04/10 06:08:24;;;;;;;2.30;0.67;;;10.40;99.90;;;;;;5071655;28;20677;-59
2021/04/10 06:10:50;;;;;;;2.50;0.87;;;10.30;99.90;;;;;;5072763;28;20216;-59
2021/04/10 06:13:15;;;;;;;3.23;1.53;;;10.40;99.90;;;;;;5064542;28;20208;-63
2021/04/10 06:15:41;;;;;;;2.43;0.70;;;10.30;99.90;;;;;;5070719;28;20470;-58
2021/04/10 06:18:07;;;;;;;3.90;2.00;;;10.30;99.90;;;;;;5072174;28;20234;-59
2021/04/10 06:20:32;;;;;;;1.90;0.50;;;10.30;99.90;;;;;;5070123;28;20739;-59
2021/04/10 06:22:58;;;;;;;1.70;0.20;;;10.30;99.90;;;;;;5082813;28;20191;-59
2021/04/10 06:25:24;;;;;;;1.90;0.60;;;10.30;99.90;;;;;;5077571;28;20197;-59
2021/04/10 06:27:50;;;;;;;2.73;1.20;;;10.30;99.90;;;;;;5082847;28;20446;-60
2021/04/10 06:30:15;;;;;;;2.60;1.27;;;10.30;99.90;;;;;;5086742;28;20223;-59
2021/04/10 06:32:41;;;;;;;3.77;2.07;;;10.30;99.90;;;;;;5082907;28;20279;-59
2021/04/10 06:35:07;;;;;;;3.10;1.13;;;10.30;99.90;;;;;;5084753;28;20988;-59
2021/04/10 06:37:34;;;;;;;2.40;1.00;;;10.30;99.90;;;;;;5081619;28;20203;-60
2021/04/10 06:40:00;;;;;;;2.73;1.43;;;10.40;99.90;;;;;;5083311;28;20454;-59
2021/04/10 06:42:26;;;;;;;3.00;1.47;;;10.40;99.90;;;;;;5090069;28;20485;-60
2021/04/10 06:44:53;;;;;;;3.50;1.23;;;10.50;99.90;;;;;;5088591;28;20246;-65
2021/04/10 06:47:22;;;;;;;4.47;1.67;;;10.50;99.90;;;;;;5091237;28;20192;-59
2021/04/10 06:49:52;;;;;;;3.60;2.20;;;10.50;99.90;;;;;;5086068;28;21058;-60
2021/04/10 06:52:18;;;;;;;2.30;1.07;;;10.60;99.90;;;;;;5083812;28;20432;-59
2021/04/10 06:54:48;;;;;;;2.60;1.30;;;10.60;99.90;;;;;;5076047;28;20438;-60
2021/04/10 06:57:16;;;;;;;4.80;0.87;;;10.60;99.90;;;;;;5084851;28;20462;-59
2021/04/10 07:00:05;;;;;;;4.10;1.20;;;10.60;99.90;;;;;;5078128;28;20466;-60
2021/04/10 07:02:32;;;;;;;3.40;1.10;;;10.60;99.90;;;;;;5079198;28;20442;-59
2021/04/10 07:05:00;;;;;;;3.80;1.37;;;10.60;99.90;;;;;;5083303;28;20794;-58
2021/04/10 07:07:27;;;;;;;3.60;1.63;;;10.60;99.90;;;;;;5075896;28;20430;-58
2021/04/10 07:09:53;;;;;;;3.60;0.83;;;10.70;99.90;;;;;;5073626;28;20498;-59
2021/04/10 07:12:20;;;;;;;1.70;0.20;;;10.60;99.90;;;;;;5065797;28;20787;-60
2021/04/10 07:14:45;;;;;;;1.80;0.40;;;10.70;99.90;;;;;;5084817;28;20423;-59
2021/04/10 07:17:14;;;;;;;4.13;0.70;;;10.70;99.90;;;;;;5083232;28;20488;-60
2021/04/10 07:19:40;;;;;;;1.73;0.30;;;10.70;99.90;;;;;;5086863;28;20287;-59
2021/04/10 07:22:12;;;;;;;1.80;0.30;;;10.60;99.90;;;;;;5086540;28;20450;-59
2021/04/10 07:24:49;;;;;;;1.70;0.20;;;10.60;99.90;;;;;;5085109;28;20447;-64
2021/04/10 07:27:25;;;;;;;2.10;0.87;;;10.70;99.90;;;;;;5085203;28;20445;-60
2021/04/10 07:29:52;;;;;;;2.65;0.55;;;10.60;99.90;;;;;;5089130;28;20450;-59
2021/04/10 07:32:37;;;;;;;2.50;0.93;;;10.60;99.90;;;;;;5087842;28;20253;-61
2021/04/10 07:35:04;;;;;;;4.93;1.43;;;10.60;99.90;;;;;;5070465;28;20439;-60
2021/04/10 07:37:43;;;;;;;2.33;1.13;;;10.50;99.90;;;;;;5085111;28;20461;-59
2021/04/10 07:40:10;;;;;;;1.70;0.20;;;10.50;99.90;;;;;;5088239;28;21001;-60
2021/04/10 07:42:43;;;;;;;1.70;0.20;;;10.60;99.90;;;;;;5083885;28;20455;-59
2021/04/10 07:45:22;;;;;;;4.13;0.70;;;10.60;99.90;;;;;;5088272;28;20466;-60
2021/04/10 07:47:48;;;;;;;1.70;0.20;;;10.60;99.90;;;;;;5078100;28;20442;-59
2021/04/10 07:50:20;;;;;;;1.70;0.20;;;10.60;99.90;;;;;;5084645;28;20470;-59
2021/04/10 07:52:46;;;;;;;4.83;1.53;;;10.60;99.90;;;;;;5081990;28;20439;-58
2021/04/10 07:55:38;;;;;;;4.60;1.13;;;10.60;99.90;;;;;;5081522;28;20453;-58
2021/04/10 07:58:20;;;;;;;2.13;0.63;;;10.60;99.90;;;;;;5075788;28;20431;-59
2021/04/10 08:00:46;;;;;;;2.07;0.70;;;10.60;99.90;;;;;;5078051;28;20473;-58
2021/04/10 08:03:25;;;;;;;2.30;0.97;;;10.60;99.90;;;;;;5075514;28;20476;-59
2021/04/10 08:05:51;;;;;;;2.63;0.57;;;10.50;99.90;;;;;;5071849;28;20252;-58
2021/04/10 08:08:25;;;;;;;1.80;0.40;;;10.50;99.90;;;;;;5072211;28;20514;-63
2021/04/10 08:11:01;;;;;;;2.20;0.47;;;10.50;99.90;;;;;;5074306;28;20204;-60
2021/04/10 08:13:28;;;;;;;1.73;0.40;;;10.40;99.90;;;;;;5074308;28;20821;-59
2021/04/10 08:16:18;;;;;;;1.90;0.30;;;10.30;99.90;;;;;;5073338;28;20433;-59
2021/04/10 08:18:48;;;;;;;2.63;1.13;;;10.10;99.90;;;;;;5072145;28;20463;-58
2021/04/10 08:21:15;;;;;;;1.70;0.20;;;10.00;99.90;;;;;;5074902;28;20530;-59
2021/04/10 08:23:41;;;;;;;2.03;0.63;;;10.00;99.90;;;;;;5069843;28;20443;-58
2021/04/10 08:26:06;;;;;;;1.90;0.60;;;9.90;99.90;;;;;;5074006;28;20526;-58
2021/04/10 08:28:34;;;;;;;3.50;0.90;;;9.90;99.90;;;;;;5074452;28;20462;-58
2021/04/10 08:31:00;;;;;;;3.50;0.63;;;9.90;99.90;;;;;;5068062;28;20201;-58
2021/04/10 08:33:30;;;;;;;5.90;2.30;;;9.90;99.90;;;;;;5073547;28;20435;-58
2021/04/10 08:35:57;;;;;;;2.23;0.77;;;9.90;99.90;;;;;;5076449;28;20427;-58
2021/04/10 08:38:24;;;;;;;2.00;0.60;;;9.80;99.90;;;;;;5075209;28;20484;-59
2021/04/10 08:40:55;;;;;;;2.10;0.80;;;9.80;99.90;;;;;;5076081;28;20450;-58
2021/04/10 08:43:25;;;;;;;2.57;0.70;;;9.80;99.90;;;;;;5078608;28;20439;-59
2021/04/10 08:45:53;;;;;;;1.80;0.30;;;9.80;99.90;;;;;;5082396;28;20523;-66
2021/04/10 08:48:22;;;;;;;1.80;0.37;;;9.90;99.90;;;;;;5085245;28;20469;-59
2021/04/10 08:50:51;;;;;;;1.70;0.20;;;9.90;99.90;;;;;;5085071;28;20466;-59
2021/04/10 08:53:26;;;;;;;1.80;0.50;;;10.00;99.90;;;;;;5086112;28;20503;-60
2021/04/10 08:55:53;;;;;;;1.70;0.20;;;10.10;99.90;;;;;;5083352;28;20442;-59
2021/04/10 08:58:23;;;;;;;1.70;0.20;;;10.10;99.90;;;;;;5077659;28;20443;-59
2021/04/10 09:01:00;;;;;;;1.70;0.20;;;10.20;99.90;;;;;;5071923;28;20965;-58
2021/04/10 09:03:45;;;;;;;1.70;0.20;;;10.30;99.90;;;;;;5060269;28;20466;-58
2021/04/10 09:06:14;;;;;;;1.70;0.20;;;10.30;99.90;;;;;;5076161;28;20427;-58
2021/04/10 09:08:40;;;;;;;1.80;0.50;;;10.30;99.90;;;;;;5075514;28;20437;-59
2021/04/10 09:11:08;;;;;;;1.77;0.37;;;10.30;99.90;;;;;;5072858;28;20474;-59
2021/04/10 09:13:44;;;;;;;1.70;0.20;;;10.30;99.90;;;;;;5081016;28;20435;-58
2021/04/10 09:16:22;;;;;;;1.70;0.20;;;10.20;99.90;;;;;;5060692;28;20457;-59
2021/04/10 09:18:55;;;;;;;2.50;0.83;;;10.20;99.90;;;;;;5082320;28;20427;-59
2021/04/10 09:21:35;;;;;;;2.03;0.40;;;10.10;99.90;;;;;;5081238;28;20462;-60
2021/04/10 09:24:22;;;;;;;2.43;0.97;;;10.10;99.90;;;;;;5082613;28;20456;-59
2021/04/10 09:26:58;;;;;;;2.30;0.70;;;10.10;99.90;;;;;;5079693;28;20444;-59
2021/04/10 09:29:28;;;;;;;1.70;0.20;;;10.10;99.90;;;;;;5077685;28;20470;-59
2021/04/10 09:31:57;;;;;;;1.70;0.20;;;10.10;99.90;;;;;;5076310;28;20525;-59
2021/04/10 09:34:46;;;;;;;1.70;0.20;;;10.10;99.90;;;;;;5075974;28;20447;-59
2021/04/10 09:37:20;;;;;;;1.70;0.20;;;10.10;99.90;;;;;;5072775;28;20483;-57
2021/04/10 09:39:59;;;;;;;1.70;0.20;;;10.10;99.90;;;;;;5073135;28;20995;-59
2021/04/10 09:42:34;;;;;;;1.70;0.20;;;10.20;99.90;;;;;;5071488;28;20438;-58
2021/04/10 09:45:11;;;;;;;1.70;0.20;;;10.20;99.90;;;;;;5069023;28;20446;-59
2021/04/10 09:47:55;;;;;;;4.23;1.63;;;10.30;99.90;;;;;;5068040;28;20936;-59
2021/04/10 09:50:25;;;;;;;1.90;0.83;;;10.20;99.90;;;;;;5072582;28;20458;-59
2021/04/10 09:52:57;;;;;;;2.83;1.53;;;10.20;99.90;;;;;;5072756;28;20439;-59
2021/04/10 09:55:24;;;;;;;1.70;0.20;;;10.30;99.90;;;;;;5077954;28;20445;-57
2021/04/10 09:57:57;;;;;;;2.10;0.43;;;10.30;99.90;;;;;;5074154;28;20438;-58
2021/04/10 10:00:27;;;;;;;1.70;0.20;;;10.30;99.90;;;;;;5071877;28;20462;-59
2021/04/10 10:02:54;;;;;;;1.80;0.47;;;10.30;99.90;;;;;;5074933;28;20454;-58
2021/04/10 10:05:20;;;;;;;1.70;0.20;;;10.30;99.90;;;;;;5071725;28;20426;-60
2021/04/10 10:07:47;;;;;;;1.70;0.20;;;10.30;99.90;;;;;;5072511;28;20484;-57
2021/04/10 10:10:13;;;;;;;1.70;0.20;;;10.30;99.90;;;;;;5076187;28;20525;-58
2021/04/10 10:12:39;;;;;;;1.70;0.20;;;10.30;99.90;;;;;;5073507;28;20461;-59
2021/04/10 10:15:22;;;;;;;1.70;0.20;;;10.30;99.90;;;;;;5072516;28;20825;-58
2021/04/10 10:17:48;;;;;;;1.70;0.20;;;10.30;99.90;;;;;;5075119;28;20233;-58
2021/04/10 10:20:15;;;;;;;2.20;0.40;;;10.40;99.90;;;;;;5071706;28;20463;-58
2021/04/10 10:22:41;;;;;;;1.70;0.20;;;10.50;99.90;;;;;;5067504;28;20187;-58
2021/04/10 10:25:08;;;;;;;1.70;0.20;;;10.50;99.90;;;;;;5068171;28;20845;-58
2021/04/10 10:27:39;;;;;;;1.70;0.20;;;10.50;99.90;;;;;;5073743;28;20426;-59
2021/04/10 10:30:14;;;;;;;1.70;0.20;;;10.50;99.90;;;;;;5072353;28;20485;-58
2021/04/10 10:32:47;;;;;;;1.70;0.20;;;10.60;99.90;;;;;;5076566;28;20445;-58
2021/04/10 10:35:18;;;;;;;1.70;0.20;;;10.70;99.90;;;;;;5056324;28;20821;-58
2021/04/10 10:37:50;;;;;;;1.70;0.20;;;10.70;99.90;;;;;;5074648;28;20426;-58
2021/04/10 10:40:25;;;;;;;1.70;0.20;;;10.70;99.90;;;;;;5073028;28;20999;-58
2021/04/10 10:43:17;;;;;;;1.70;0.20;;;10.70;99.90;;;;;;5076732;28;20510;-58
2021/04/10 10:45:45;;;;;;;1.70;0.20;;;10.70;99.90;;;;;;5071999;28;20892;-58
2021/04/10 10:48:21;;;;;;;1.70;0.20;;;10.70;99.90;;;;;;5076393;28;20440;-59
2021/04/10 10:50:47;;;;;;;1.70;0.20;;;10.70;99.90;;;;;;5074637;28;20959;-57
2021/04/10 10:53:25;;;;;;;1.80;0.30;;;10.80;99.90;;;;;;5069996;28;20429;-58
2021/04/10 10:56:09;;;;;;;1.70;0.20;;;10.80;99.90;;;;;;5070361;28;20184;-58
2021/04/10 10:58:49;;;;;;;1.70;0.20;;;10.80;99.90;;;;;;5075137;28;20521;-58
2021/04/10 11:01:28;;;;;;;1.80;0.40;;;10.80;99.90;;;;;;5069044;28;20488;-58
2021/04/10 11:04:10;;;;;;;1.70;0.20;;;10.80;99.90;;;;;;5075826;28;20438;-59
2021/04/10 11:06:44;;;;;;;1.70;0.20;;;10.70;99.90;;;;;;5072514;28;20438;-58
2021/04/10 11:09:14;;;;;;;1.70;0.20;;;10.70;99.90;;;;;;5073429;28;20571;-59
2021/04/10 11:11:46;;;;;;;1.70;0.30;;;10.70;99.90;;;;;;5068072;28;20435;-58
2021/04/10 11:14:21;;;;;;;2.00;0.77;;;10.70;99.90;;;;;;5072503;28;20442;-58
2021/04/10 11:16:51;;;;;;;2.03;1.03;;;10.70;99.90;;;;;;5075800;28;20441;-58
2021/04/10 11:19:25;;;;;;;1.80;0.30;;;10.70;99.90;;;;;;5091337;28;20490;-57
2021/04/10 11:21:51;;;;;;;1.70;0.20;;;10.70;99.90;;;;;;5060283;28;20441;-57
2021/04/10 11:24:16;;;;;;;1.70;0.20;;;10.80;99.90;;;;;;5085028;28;20480;-58
2021/04/10 11:26:55;;;;;;;2.17;0.50;;;10.80;99.90;;;;;;5084069;28;20185;-57
2021/04/10 11:29:33;;;;;;;3.33;1.30;;;10.80;99.90;;;;;;5073818;28;20286;-58
2021/04/10 11:32:15;;;;;;;1.70;0.20;;;10.80;99.90;;;;;;5073673;28;20439;-58
2021/04/10 11:34:42;;;;;;;1.80;0.30;;;10.80;99.90;;;;;;5072659;28;20457;-58
2021/04/10 11:37:10;;;;;;;1.70;0.20;;;10.90;99.90;;;;;;5073306;28;20439;-58
2021/04/10 11:39:57;;;;;;;1.70;0.20;;;10.90;99.90;;;;;;5072206;28;20815;-58
2021/04/10 11:42:25;;;;;;;1.70;0.20;;;11.00;99.90;;;;;;5070578;28;20442;-58
2021/04/10 11:44:52;;;;;;;1.70;0.20;;;11.10;99.90;;;;;;5076949;28;20453;-58
2021/04/10 11:47:22;;;;;;;1.73;0.30;;;11.20;99.90;;;;;;5072851;28;20439;-59
2021/04/10 11:49:48;;;;;;;1.90;0.50;;;11.20;99.90;;;;;;5074568;28;20554;-57
2021/04/10 11:52:14;;;;;;;1.70;0.20;;;11.30;99.90;;;;;;5072943;28;20498;-57
2021/04/10 11:54:40;;;;;;;7.40;0.60;;;11.30;99.90;;;;;;5071844;28;20183;-57
2021/04/10 11:57:06;;;;;;;1.70;0.20;;;11.30;99.90;;;;;;5074796;28;20449;-57
2021/04/10 11:59:37;;;;;;;1.70;0.20;;;11.20;99.90;;;;;;5071139;28;20629;-57
2021/04/10 12:02:05;;;;;;;1.70;0.20;;;11.20;99.90;;;;;;5066979;28;20423;-57
2021/04/10 12:04:37;;;;;;;1.70;0.30;;;11.20;99.90;;;;;;5081451;28;20454;-57
2021/04/10 12:07:08;;;;;;;1.70;0.20;;;11.20;99.90;;;;;;5073066;28;20940;-57
2021/04/10 12:09:41;;;;;;;1.70;0.20;;;11.20;99.90;;;;;;5070979;28;20502;-58
2021/04/10 12:12:09;;;;;;;1.70;0.40;;;11.20;99.90;;;;;;5069175;28;20462;-58
2021/04/10 12:14:36;;;;;;;1.70;0.20;;;11.30;99.90;;;;;;5070420;28;20445;-58
2021/04/10 12:17:02;;;;;;;1.90;0.63;;;11.30;99.90;;;;;;5072118;28;20450;-58
2021/04/10 12:19:28;;;;;;;1.70;0.20;;;11.30;99.90;;;;;;5075229;28;20455;-58
2021/04/10 12:21:54;;;;;;;1.70;0.20;;;11.30;99.90;;;;;;5078004;28;20936;-59
2021/04/10 12:24:19;;;;;;;1.70;0.20;;;11.40;99.90;;;;;;5074612;28;23567;-58
2021/04/10 12:26:46;;;;;;;1.70;0.20;;;11.40;99.90;;;;;;5079895;28;20184;-59
2021/04/10 12:29:12;;;;;;;1.70;0.20;;;11.40;99.90;;;;;;5070184;28;20454;-59
2021/04/10 12:31:37;;;;;;;1.70;0.20;;;11.50;99.90;;;;;;5069491;28;20929;-58
2021/04/10 12:34:03;;;;;;;1.70;0.20;;;11.60;99.90;;;;;;5074640;28;20176;-59
2021/04/10 12:36:30;;;;;;;1.70;0.20;;;11.60;99.90;;;;;;5070482;28;20263;-58
2021/04/10 12:38:56;;;;;;;8.87;8.20;;;11.60;99.90;;;;;;5077202;28;20462;-58
2021/04/10 12:41:21;;;;;;;1.70;0.20;;;11.70;99.90;;;;;;5074775;28;20439;-58
2021/04/10 12:43:47;;;;;;;1.70;0.20;;;11.70;99.90;;;;;;5075857;28;20185;-58
2021/04/10 12:46:13;;;;;;;1.70;0.20;;;11.70;99.90;;;;;;5074118;28;20215;-57
2021/04/10 12:48:39;;;;;;;1.70;0.20;;;11.80;99.90;;;;;;5072747;28;20220;-59
2021/04/10 12:51:06;;;;;;;1.70;0.20;;;11.80;99.90;;;;;;5070988;28;20678;-58
2021/04/10 12:53:31;;;;;;;1.70;0.20;;;11.90;99.90;;;;;;5077498;28;20473;-58
2021/04/10 12:55:57;;;;;;;1.63;0.20;;;12.00;99.90;;;;;;5075167;28;20512;-57
2021/04/10 12:58:23;;;;;;;1.70;0.20;;;12.00;99.90;;;;;;5072844;28;20199;-58